createdAt,value
2023-05-21T00:01:08.593Z,98337.81
2023-05-21T00:03:36.261Z,98341.72
2023-05-21T00:06:03.896Z,98327.47
2023-05-21T00:08:31.221Z,98333.00
2023-05-21T00:10:58.053Z,98327.25
2023-05-21T00:13:24.798Z,98315.72
2023-05-21T00:15:51.663Z,98325.44
2023-05-21T00:18:18.363Z,98314.63
2023-05-21T00:20:45.684Z,98313.69
2023-05-21T00:23:12.568Z,98304.31
2023-05-21T00:25:39.331Z,98310.06
2023-05-21T00:28:05.947Z,98306.66
2023-05-21T00:30:32.756Z,98310.78
2023-05-21T00:33:02.456Z,98292.50
2023-05-21T00:35:29.636Z,98299.81
2023-05-21T00:37:56.510Z,98299.25
2023-05-21T00:40:23.265Z,98294.09
2023-05-21T00:42:49.967Z,98296.56
2023-05-21T00:45:16.840Z,98291.63
2023-05-21T00:47:44.691Z,98292.03
2023-05-21T00:50:12.008Z,98292.88
2023-05-21T00:52:42.224Z,98294.03
2023-05-21T00:55:10.648Z,98293.66
2023-05-21T00:57:37.537Z,98286.25
2023-05-21T01:00:08.788Z,98282.50
2023-05-21T01:02:37.229Z,98291.69
2023-05-21T01:05:08.449Z,98289.53
2023-05-21T01:07:39.072Z,98274.88
2023-05-21T01:10:08.233Z,98270.19
2023-05-21T01:12:35.979Z,98282.63
2023-05-21T01:15:04.173Z,98273.66
2023-05-21T01:17:31.896Z,98262.41
2023-05-21T01:19:59.422Z,98269.97
2023-05-21T01:22:28.533Z,98267.13
2023-05-21T01:24:55.649Z,98269.91
2023-05-21T01:27:22.906Z,98263.81
2023-05-21T01:29:50.388Z,98263.59
2023-05-21T01:32:29.864Z,98262.56
2023-05-21T01:35:04.507Z,98264.31
2023-05-21T01:37:57.495Z,98259.16
2023-05-21T01:40:38.415Z,98241.41
2023-05-21T01:43:07.189Z,98257.06
2023-05-21T01:45:36.657Z,98258.31
2023-05-21T01:48:05.996Z,98258.31
2023-05-21T01:50:34.421Z,98248.84
2023-05-21T01:53:01.296Z,98249.44
2023-05-21T01:55:30.775Z,98251.41
2023-05-21T01:58:01.365Z,98258.78
2023-05-21T02:00:29.623Z,98252.56
2023-05-21T02:02:56.924Z,98245.75
2023-05-21T02:05:23.861Z,98247.19
2023-05-21T02:07:52.104Z,98249.66
2023-05-21T02:10:19.355Z,98251.84
2023-05-21T02:12:46.489Z,98253.63
2023-05-21T02:15:14.447Z,98253.72
2023-05-21T02:17:42.465Z,98247.53
2023-05-21T02:20:12.254Z,98248.91
2023-05-21T02:22:41.437Z,98243.75
2023-05-21T02:25:09.502Z,98240.31
2023-05-21T02:27:37.602Z,98243.41
2023-05-21T02:30:06.885Z,98238.94
2023-05-21T02:32:34.864Z,98243.53
2023-05-21T02:35:03.804Z,98227.91
2023-05-21T02:37:33.949Z,98227.91
2023-05-21T02:40:02.159Z,98233.34
2023-05-21T02:42:29.928Z,98229.81
2023-05-21T02:44:56.761Z,98224.66
2023-05-21T02:47:24.292Z,98235.09
2023-05-21T02:49:53.056Z,98239.16
2023-05-21T02:52:22.584Z,98218.28
2023-05-21T02:54:49.432Z,98227.13
2023-05-21T02:57:18.268Z,98216.13
2023-05-21T02:59:45.959Z,98223.53
2023-05-21T03:02:12.944Z,98231.28
2023-05-21T03:04:46.348Z,98229.66
2023-05-21T03:07:14.669Z,98228.81
2023-05-21T03:09:42.342Z,98235.50
2023-05-21T03:12:09.763Z,98225.69
2023-05-21T03:14:36.606Z,98228.56
2023-05-21T03:17:05.969Z,98233.53
2023-05-21T03:19:35.863Z,98230.47
2023-05-21T03:22:04.579Z,98227.88
2023-05-21T03:24:35.259Z,98229.94
2023-05-21T03:27:02.387Z,98230.97
2023-05-21T03:29:29.221Z,98216.13
2023-05-21T03:31:57.643Z,98223.22
2023-05-21T03:34:24.567Z,98217.81
2023-05-21T03:36:52.252Z,98228.47
2023-05-21T03:39:20.323Z,98221.34
2023-05-21T03:41:47.118Z,98220.19
2023-05-21T03:44:22.112Z,98228.97
2023-05-21T03:46:56.315Z,98231.53
2023-05-21T03:49:28.779Z,98218.75
2023-05-21T03:51:56.827Z,98230.13
2023-05-21T03:54:24.377Z,98237.28
2023-05-21T03:56:54.171Z,98238.34
2023-05-21T03:59:22.642Z,98237.84
2023-05-21T04:01:49.421Z,98241.28
2023-05-21T04:04:17.675Z,98245.81
2023-05-21T04:06:44.541Z,98240.88
2023-05-21T04:09:12.980Z,98246.28
2023-05-21T04:11:39.734Z,98241.53
2023-05-21T04:14:06.550Z,98246.28
2023-05-21T04:16:34.805Z,98250.47
2023-05-21T04:19:01.907Z,98258.22
2023-05-21T04:21:30.094Z,98258.22
2023-05-21T04:23:57.588Z,98245.66
2023-05-21T04:26:44.705Z,98250.16
2023-05-21T04:29:11.677Z,98250.59
2023-05-21T04:31:38.467Z,98244.97
2023-05-21T04:34:05.452Z,98260.22
2023-05-21T04:36:33.773Z,98265.25
2023-05-21T04:39:01.190Z,98269.50
2023-05-21T04:41:28.621Z,98274.44
2023-05-21T04:43:55.539Z,98274.78
2023-05-21T04:46:26.866Z,98292.28
2023-05-21T04:48:55.386Z,98283.22
2023-05-21T04:51:24.726Z,98284.03
2023-05-21T04:53:52.073Z,98284.13
2023-05-21T04:56:19.006Z,98285.09
2023-05-21T04:58:47.975Z,98285.44
2023-05-21T05:01:15.929Z,98288.19
2023-05-21T05:03:42.902Z,98278.63
2023-05-21T05:06:09.599Z,98277.94
2023-05-21T05:08:36.410Z,98279.19
2023-05-21T05:11:04.207Z,98279.53
2023-05-21T05:13:31.393Z,98281.19
2023-05-21T05:15:58.038Z,98274.75
2023-05-21T05:18:26.489Z,98264.31
2023-05-21T05:20:53.214Z,98255.75
2023-05-21T05:23:20.000Z,98242.38
2023-05-21T05:25:46.929Z,98243.69
2023-05-21T05:28:13.795Z,98244.09
2023-05-21T05:30:40.736Z,98253.50
2023-05-21T05:33:26.476Z,98252.81
2023-05-21T05:35:53.627Z,98251.16
2023-05-21T05:38:21.079Z,98256.91
2023-05-21T05:40:47.813Z,98246.69
2023-05-21T05:43:14.571Z,98247.41
2023-05-21T05:45:41.277Z,98240.38
2023-05-21T05:48:13.028Z,98242.72
2023-05-21T05:50:39.666Z,98251.19
2023-05-21T05:53:07.405Z,98240.88
2023-05-21T05:55:34.745Z,98237.38
2023-05-21T05:58:01.614Z,98236.28
2023-05-21T06:00:28.339Z,98233.41
2023-05-21T06:02:55.841Z,98232.94
2023-05-21T06:05:22.833Z,98230.22
2023-05-21T06:07:50.706Z,98234.88
2023-05-21T06:10:20.817Z,98238.38
2023-05-21T06:12:47.696Z,98228.88
2023-05-21T06:15:19.396Z,98226.06
2023-05-21T06:17:46.329Z,98229.00
2023-05-21T06:20:13.754Z,98225.47
2023-05-21T06:22:40.742Z,98229.47
2023-05-21T06:25:11.100Z,98227.59
2023-05-21T06:27:38.765Z,98231.72
2023-05-21T06:30:10.567Z,98225.75
2023-05-21T06:32:37.499Z,98231.59
2023-05-21T06:35:04.744Z,98220.91
2023-05-21T06:37:31.522Z,98227.38
2023-05-21T06:39:58.222Z,98227.47
2023-05-21T06:42:24.922Z,98223.84
2023-05-21T06:45:24.010Z,98214.25
2023-05-21T06:47:54.965Z,98215.19
2023-05-21T06:50:21.706Z,98219.06
2023-05-21T06:52:48.532Z,98214.94
2023-05-21T06:55:15.350Z,98221.88
2023-05-21T06:58:14.314Z,98222.00
2023-05-21T07:00:41.205Z,98223.38
2023-05-21T07:03:08.254Z,98221.75
2023-05-21T07:05:36.543Z,98216.09
2023-05-21T07:08:04.673Z,98217.63
2023-05-21T07:10:31.338Z,98214.81
2023-05-21T07:12:59.826Z,98219.63
2023-05-21T07:15:27.065Z,98219.63
2023-05-21T07:17:58.323Z,98206.41
2023-05-21T07:20:25.326Z,98205.44
2023-05-21T07:22:55.547Z,98210.97
2023-05-21T07:25:22.692Z,98210.50
2023-05-21T07:27:49.492Z,98209.00
2023-05-21T07:30:16.446Z,98216.63
2023-05-21T07:32:43.164Z,98213.69
2023-05-21T07:35:10.151Z,98209.94
2023-05-21T07:37:36.821Z,98210.75
2023-05-21T07:40:04.744Z,98212.16
2023-05-21T07:42:31.538Z,98213.94
2023-05-21T07:44:58.870Z,98213.56
2023-05-21T07:47:27.078Z,98213.19
2023-05-21T07:49:54.200Z,98211.22
2023-05-21T07:52:21.142Z,98206.63
2023-05-21T07:54:47.913Z,98199.72
2023-05-21T07:57:15.074Z,98207.59
2023-05-21T07:59:56.841Z,98206.75
2023-05-21T08:02:24.312Z,98209.13
2023-05-21T08:04:55.200Z,98201.44
2023-05-21T08:07:22.070Z,98201.22
2023-05-21T08:09:49.041Z,98192.38
2023-05-21T08:12:16.202Z,98202.03
2023-05-21T08:14:43.821Z,98204.38
2023-05-21T08:17:12.682Z,98200.84
2023-05-21T08:19:39.749Z,98198.97
2023-05-21T08:22:07.590Z,98202.72
2023-05-21T08:24:36.865Z,98206.03
2023-05-21T08:27:03.890Z,98214.03
2023-05-21T08:29:33.094Z,98209.31
2023-05-21T08:31:59.928Z,98219.09
2023-05-21T08:34:26.757Z,98220.13
2023-05-21T08:37:06.998Z,98209.09
2023-05-21T08:40:09.851Z,98210.94
2023-05-21T08:42:47.512Z,98210.00
2023-05-21T08:45:23.722Z,98216.34
2023-05-21T08:48:00.069Z,98203.53
2023-05-21T08:50:31.945Z,98209.06
2023-05-21T08:53:07.523Z,98209.50
2023-05-21T08:55:43.855Z,98209.75
2023-05-21T08:58:11.201Z,98210.00
2023-05-21T09:00:38.160Z,98214.94
2023-05-21T09:03:11.291Z,98214.00
2023-05-21T09:05:41.475Z,98209.88
2023-05-21T09:08:18.068Z,98213.16
2023-05-21T09:11:14.546Z,98212.59
2023-05-21T09:13:49.179Z,98205.06
2023-05-21T09:16:23.101Z,98207.78
2023-05-21T09:18:50.298Z,98216.34
2023-05-21T09:21:28.375Z,98212.38
2023-05-21T09:24:14.432Z,98218.13
2023-05-21T09:26:45.711Z,98231.06
2023-05-21T09:29:13.342Z,98222.94
2023-05-21T09:31:44.918Z,98223.63
2023-05-21T09:34:14.156Z,98220.22
2023-05-21T09:36:44.006Z,98226.94
2023-05-21T09:39:16.321Z,98232.34
2023-05-21T09:41:43.880Z,98231.25
2023-05-21T09:44:10.733Z,98236.69
2023-05-21T09:46:40.429Z,98232.34
2023-05-21T09:49:21.931Z,98246.78
2023-05-21T09:51:48.699Z,98231.28
2023-05-21T09:54:15.346Z,98258.09
2023-05-21T09:56:42.453Z,98260.06
2023-05-21T09:59:09.293Z,98237.06
2023-05-21T10:01:37.393Z,98266.06
2023-05-21T10:04:08.345Z,98271.59
2023-05-21T10:06:43.557Z,98270.06
2023-05-21T10:09:11.539Z,98271.84
2023-05-21T10:11:40.979Z,98268.31
2023-05-21T10:14:13.545Z,98279.34
2023-05-21T10:16:40.859Z,98274.19
2023-05-21T10:19:11.147Z,98272.78
2023-05-21T10:21:39.961Z,98275.38
2023-05-21T10:24:10.797Z,98272.53
2023-05-21T10:26:38.627Z,98272.78
2023-05-21T10:29:05.523Z,98278.44
2023-05-21T10:31:33.277Z,98277.50
2023-05-21T10:34:00.847Z,98270.19
2023-05-21T10:36:31.830Z,98274.28
2023-05-21T10:39:00.699Z,98269.47
2023-05-21T10:41:32.499Z,98258.53
2023-05-21T10:44:05.317Z,98270.41
2023-05-21T10:47:10.782Z,98268.75
2023-05-21T10:49:59.309Z,98267.47
2023-05-21T10:53:03.257Z,98265.84
2023-05-21T10:55:29.987Z,98271.84
2023-05-21T10:58:26.919Z,98262.19
2023-05-21T11:00:56.130Z,98267.13
2023-05-21T11:03:23.246Z,98262.09
2023-05-21T11:05:55.471Z,98265.72
2023-05-21T11:08:35.671Z,98266.66
2023-05-21T11:11:03.627Z,98260.56
2023-05-21T11:13:49.237Z,98258.66
2023-05-21T11:16:17.155Z,98268.06
2023-05-21T11:18:46.669Z,98271.22
2023-05-21T11:21:17.830Z,98271.94
2023-05-21T11:24:05.002Z,98271.69
2023-05-21T11:26:50.274Z,98270.88
2023-05-21T11:29:17.650Z,98267.34
2023-05-21T11:31:49.320Z,98269.00
2023-05-21T11:34:28.625Z,98262.03
2023-05-21T11:37:17.502Z,98261.94
2023-05-21T11:39:45.357Z,98261.00
2023-05-21T11:42:12.753Z,98261.94
2023-05-21T11:44:43.355Z,98256.63
2023-05-21T11:47:12.598Z,98255.22
2023-05-21T11:49:39.512Z,98248.84
2023-05-21T11:52:07.925Z,98249.88
2023-05-21T11:54:40.978Z,98243.88
2023-05-21T11:57:08.202Z,98251.59
2023-05-21T11:59:35.555Z,98246.06
2023-05-21T12:02:03.551Z,98239.09
2023-05-21T12:04:37.877Z,98245.56
2023-05-21T12:07:08.369Z,98239.22
2023-05-21T12:09:43.037Z,98239.88
2023-05-21T12:12:11.583Z,98243.16
2023-05-21T12:14:38.286Z,98240.47
2023-05-21T12:17:06.956Z,98234.09
2023-05-21T12:19:35.081Z,98240.53
2023-05-21T12:22:06.189Z,98226.13
2023-05-21T12:24:34.437Z,98227.25
2023-05-21T12:27:02.855Z,98217.97
2023-05-21T12:29:33.556Z,98222.66
2023-05-21T12:32:01.914Z,98217.81
2023-05-21T12:34:48.747Z,98216.22
2023-05-21T12:37:25.870Z,98215.50
2023-05-21T12:39:54.550Z,98215.72
2023-05-21T12:42:35.388Z,98214.50
2023-05-21T12:45:08.033Z,98214.81
2023-05-21T12:47:35.234Z,98207.63
2023-05-21T12:50:09.355Z,98203.16
2023-05-21T12:52:36.110Z,98213.00
2023-05-21T12:55:02.841Z,98205.66
2023-05-21T12:57:38.805Z,98199.19
2023-05-21T13:00:07.349Z,98192.91
2023-05-21T13:02:42.863Z,98195.78
2023-05-21T13:05:17.444Z,98189.78
2023-05-21T13:07:46.930Z,98188.13
2023-05-21T13:10:16.272Z,98186.22
2023-05-21T13:12:44.702Z,98185.38
2023-05-21T13:15:12.271Z,98194.53
2023-05-21T13:17:39.194Z,98188.09
2023-05-21T13:20:16.721Z,98173.69
2023-05-21T13:22:46.716Z,98177.59
2023-05-21T13:25:21.547Z,98182.44
2023-05-21T13:27:49.538Z,98174.78
2023-05-21T13:30:16.433Z,98174.63
2023-05-21T13:32:43.738Z,98178.94
2023-05-21T13:35:11.926Z,98170.03
2023-05-21T13:37:42.160Z,98175.22
2023-05-21T13:40:16.979Z,98167.34
2023-05-21T13:42:45.548Z,98172.09
2023-05-21T13:45:14.657Z,98175.16
2023-05-21T13:47:42.138Z,98174.19
2023-05-21T13:50:09.518Z,98165.41
2023-05-21T13:52:37.371Z,98165.81
2023-05-21T13:55:04.493Z,98150.09
2023-05-21T13:57:31.326Z,98153.09
2023-05-21T13:59:59.015Z,98155.59
2023-05-21T14:02:26.294Z,98160.34
2023-05-21T14:04:53.892Z,98150.53
2023-05-21T14:07:21.594Z,98151.50
2023-05-21T14:09:48.567Z,98155.84
2023-05-21T14:12:15.766Z,98150.59
2023-05-21T14:14:42.517Z,98152.44
2023-05-21T14:17:09.304Z,98157.03
2023-05-21T14:19:36.103Z,98158.25
2023-05-21T14:22:02.854Z,98158.91
2023-05-21T14:24:29.698Z,98155.06
2023-05-21T14:26:56.497Z,98152.75
2023-05-21T14:29:23.346Z,98149.25
2023-05-21T14:31:50.466Z,98147.09
2023-05-21T14:34:17.749Z,98148.34
2023-05-21T14:36:44.670Z,98142.41
2023-05-21T14:39:11.591Z,98141.44
2023-05-21T14:41:39.585Z,98143.44
2023-05-21T14:44:06.267Z,98138.00
2023-05-21T14:46:33.188Z,98140.13
2023-05-21T14:49:00.637Z,98137.66
2023-05-21T14:51:27.619Z,98127.25
2023-05-21T14:53:54.389Z,98129.25
2023-05-21T14:56:21.866Z,98127.00
2023-05-21T14:58:48.608Z,98136.59
2023-05-21T15:01:15.640Z,98121.91
2023-05-21T15:03:42.443Z,98131.44
2023-05-21T15:06:09.327Z,98124.41
2023-05-21T15:08:36.125Z,98129.72
2023-05-21T15:11:02.837Z,98129.22
2023-05-21T15:13:29.601Z,98122.84
2023-05-21T15:15:56.659Z,98131.06
2023-05-21T15:18:24.789Z,98129.94
2023-05-21T15:20:51.663Z,98118.66
2023-05-21T15:23:18.755Z,98123.50
2023-05-21T15:25:45.988Z,98124.75
2023-05-21T15:28:13.127Z,98118.69
2023-05-21T15:30:40.459Z,98120.25
2023-05-21T15:33:07.214Z,98109.56
2023-05-21T15:35:35.451Z,98109.81
2023-05-21T15:38:02.865Z,98112.41
2023-05-21T15:40:29.785Z,98108.78
2023-05-21T15:42:56.545Z,98109.16
2023-05-21T15:45:25.294Z,98111.53
2023-05-21T15:47:52.095Z,98113.28
2023-05-21T15:50:18.928Z,98114.16
2023-05-21T15:52:45.678Z,98109.34
2023-05-21T15:55:13.871Z,98103.84
2023-05-21T15:57:40.799Z,98099.81
2023-05-21T16:00:09.032Z,98108.78
2023-05-21T16:02:35.984Z,98105.75
2023-05-21T16:05:02.986Z,98095.59
2023-05-21T16:07:29.739Z,98099.69
2023-05-21T16:09:56.552Z,98092.69
2023-05-21T16:12:23.237Z,98079.16
2023-05-21T16:14:53.140Z,98092.38
2023-05-21T16:17:20.130Z,98086.81
2023-05-21T16:19:47.596Z,98092.81
2023-05-21T16:22:14.832Z,98094.41
2023-05-21T16:24:41.558Z,98088.38
2023-05-21T16:27:08.369Z,98082.78
2023-05-21T16:29:35.333Z,98081.88
2023-05-21T16:32:02.379Z,98082.59
2023-05-21T16:34:29.284Z,98080.03
2023-05-21T16:36:56.642Z,98090.41
2023-05-21T16:39:23.256Z,98090.88
2023-05-21T16:41:50.147Z,98086.16
2023-05-21T16:44:17.011Z,98084.94
2023-05-21T16:46:43.799Z,98079.19
2023-05-21T16:49:10.833Z,98082.09
2023-05-21T16:51:37.636Z,98079.72
2023-05-21T16:54:05.313Z,98077.41
2023-05-21T16:56:32.140Z,98086.34
2023-05-21T16:58:58.887Z,98078.00
2023-05-21T17:01:26.140Z,98081.16
2023-05-21T17:03:53.403Z,98076.97
2023-05-21T17:06:20.468Z,98074.97
2023-05-21T17:08:47.290Z,98072.78
2023-05-21T17:11:14.156Z,98060.09
2023-05-21T17:13:41.127Z,98062.34
2023-05-21T17:16:08.058Z,98065.34
2023-05-21T17:18:35.142Z,98060.94
2023-05-21T17:21:01.930Z,98061.03
2023-05-21T17:23:28.650Z,98060.53
2023-05-21T17:25:55.557Z,98061.50
2023-05-21T17:28:22.270Z,98066.47
2023-05-21T17:30:49.753Z,98062.66
2023-05-21T17:33:16.926Z,98060.84
2023-05-21T17:35:44.227Z,98058.81
2023-05-21T17:38:11.004Z,98063.66
2023-05-21T17:40:37.774Z,98072.69
2023-05-21T17:43:05.241Z,98074.75
2023-05-21T17:45:32.186Z,98072.50
2023-05-21T17:48:00.458Z,98079.47
2023-05-21T17:50:28.173Z,98075.00
2023-05-21T17:52:55.040Z,98075.44
2023-05-21T17:55:21.769Z,98081.31
2023-05-21T17:57:48.557Z,98084.47
2023-05-21T18:00:15.485Z,98081.50
2023-05-21T18:02:42.232Z,98081.91
2023-05-21T18:05:09.303Z,98085.63
2023-05-21T18:07:37.310Z,98087.16
2023-05-21T18:10:04.399Z,98087.28
2023-05-21T18:12:31.075Z,98083.91
2023-05-21T18:14:58.033Z,98094.72
2023-05-21T18:17:24.966Z,98092.00
2023-05-21T18:19:51.745Z,98102.41
2023-05-21T18:22:18.372Z,98098.44
2023-05-21T18:24:46.200Z,98093.53
2023-05-21T18:27:13.609Z,98105.56
2023-05-21T18:29:40.490Z,98101.31
2023-05-21T18:32:07.723Z,98107.47
2023-05-21T18:34:34.646Z,98119.78
2023-05-21T18:37:01.380Z,98113.63
2023-05-21T18:39:28.222Z,98119.94
2023-05-21T18:42:08.859Z,98122.38
2023-05-21T18:44:39.477Z,98137.84
2023-05-21T18:47:07.818Z,98126.91
2023-05-21T18:49:36.060Z,98138.94
2023-05-21T18:52:03.906Z,98135.13
2023-05-21T18:54:30.815Z,98132.09
2023-05-21T18:57:00.213Z,98135.66
2023-05-21T18:59:28.393Z,98138.81
2023-05-21T19:01:55.291Z,98138.38
2023-05-21T19:04:22.333Z,98143.03
2023-05-21T19:06:48.989Z,98139.75
2023-05-21T19:09:15.912Z,98137.56
2023-05-21T19:11:42.538Z,98138.25
2023-05-21T19:14:09.368Z,98142.06
2023-05-21T19:16:36.151Z,98140.16
2023-05-21T19:19:04.177Z,98148.91
2023-05-21T19:21:31.418Z,98152.59
2023-05-21T19:23:58.492Z,98158.19
2023-05-21T19:26:25.443Z,98168.69
2023-05-21T19:28:53.274Z,98165.72
2023-05-21T19:31:21.872Z,98163.13
2023-05-21T19:33:49.117Z,98179.06
2023-05-21T19:36:16.158Z,98184.94
2023-05-21T19:38:48.198Z,98187.56
2023-05-21T19:41:19.589Z,98187.38
2023-05-21T19:43:46.395Z,98187.97
2023-05-21T19:46:15.993Z,98197.94
2023-05-21T19:48:45.121Z,98200.22
2023-05-21T19:51:11.857Z,98201.22
2023-05-21T19:53:38.781Z,98207.06
2023-05-21T19:56:05.875Z,98212.81
2023-05-21T19:58:33.153Z,98211.44
2023-05-21T20:01:01.073Z,98213.84
2023-05-21T20:03:28.753Z,98224.41
2023-05-21T20:05:55.505Z,98225.34
2023-05-21T20:08:22.775Z,98232.19
2023-05-21T20:10:51.664Z,98228.72
2023-05-21T20:13:19.576Z,98231.88
2023-05-21T20:15:48.009Z,98233.34
2023-05-21T20:18:15.646Z,98229.53
2023-05-21T20:20:43.428Z,98226.34
2023-05-21T20:23:10.488Z,98224.56
2023-05-21T20:25:37.213Z,98227.56
2023-05-21T20:28:05.327Z,98225.31
2023-05-21T20:30:34.000Z,98223.00
2023-05-21T20:33:04.215Z,98227.25
2023-05-21T20:35:31.101Z,98227.88
2023-05-21T20:37:59.542Z,98230.91
2023-05-21T20:40:26.358Z,98221.88
2023-05-21T20:42:54.074Z,98234.56
2023-05-21T20:45:22.029Z,98233.38
2023-05-21T20:47:49.931Z,98240.59
2023-05-21T20:50:25.926Z,98246.16
2023-05-21T20:52:52.669Z,98242.72
2023-05-21T20:55:20.722Z,98240.75
2023-05-21T20:57:47.640Z,98225.84
2023-05-21T21:00:15.993Z,98244.44
2023-05-21T21:02:42.876Z,98245.91
2023-05-21T21:05:10.696Z,98243.38
2023-05-21T21:07:37.769Z,98249.50
2023-05-21T21:10:05.473Z,98251.91
2023-05-21T21:12:32.224Z,98251.44
2023-05-21T21:14:58.830Z,98252.47
2023-05-21T21:17:25.608Z,98259.66
2023-05-21T21:19:52.334Z,98263.72
2023-05-21T21:22:19.516Z,98259.59
2023-05-21T21:24:46.870Z,98262.06
2023-05-21T21:27:13.761Z,98263.84
2023-05-21T21:29:40.392Z,98267.97
2023-05-21T21:32:07.631Z,98265.66
2023-05-21T21:34:34.357Z,98269.59
2023-05-21T21:37:01.178Z,98267.25
2023-05-21T21:39:27.856Z,98281.41
2023-05-21T21:41:54.698Z,98281.66
2023-05-21T21:44:21.301Z,98286.22
2023-05-21T21:46:48.104Z,98278.81
2023-05-21T21:49:17.260Z,98278.13
2023-05-21T21:51:48.430Z,98278.69
2023-05-21T21:54:15.572Z,98268.91
2023-05-21T21:56:42.476Z,98275.16
2023-05-21T21:59:09.280Z,98280.41
2023-05-21T22:01:36.271Z,98282.00
2023-05-21T22:04:03.329Z,98278.25
2023-05-21T22:06:30.064Z,98280.97
2023-05-21T22:08:56.818Z,98278.25
2023-05-21T22:11:23.679Z,98273.88
2023-05-21T22:13:50.388Z,98278.38
2023-05-21T22:16:17.051Z,98279.84
2023-05-21T22:18:44.024Z,98289.03
2023-05-21T22:21:14.179Z,98281.63
2023-05-21T22:23:41.329Z,98283.28
2023-05-21T22:26:09.040Z,98280.31
2023-05-21T22:28:36.148Z,98283.97
2023-05-21T22:31:03.395Z,98287.66
2023-05-21T22:33:30.528Z,98285.16
2023-05-21T22:35:57.296Z,98274.13
2023-05-21T22:38:24.924Z,98276.59
2023-05-21T22:40:51.619Z,98273.13
2023-05-21T22:43:18.479Z,98286.91
2023-05-21T22:45:45.196Z,98271.53
2023-05-21T22:48:11.916Z,98271.75
2023-05-21T22:50:39.142Z,98265.16
2023-05-21T22:53:06.981Z,98263.38
2023-05-21T22:55:33.801Z,98259.47
2023-05-21T22:58:00.546Z,98264.69
2023-05-21T23:00:28.052Z,98267.22
2023-05-21T23:02:55.116Z,98257.22
2023-05-21T23:05:22.503Z,98263.22
2023-05-21T23:07:49.604Z,98256.97
2023-05-21T23:10:16.637Z,98262.28
2023-05-21T23:12:43.575Z,98262.91
2023-05-21T23:15:10.809Z,98267.03
2023-05-21T23:17:38.400Z,98273.53
2023-05-21T23:20:07.018Z,98276.78
2023-05-21T23:22:34.409Z,98272.56
2023-05-21T23:25:01.522Z,98280.69
2023-05-21T23:27:28.601Z,98278.47
2023-05-21T23:29:55.698Z,98283.31
2023-05-21T23:32:23.661Z,98277.78
2023-05-21T23:34:50.808Z,98285.81
2023-05-21T23:37:17.646Z,98301.09
2023-05-21T23:39:48.137Z,98322.28
2023-05-21T23:42:16.291Z,98343.78
2023-05-21T23:44:43.021Z,98346.47
2023-05-21T23:47:09.972Z,98321.34
2023-05-21T23:49:36.733Z,98317.69
2023-05-21T23:52:03.904Z,98307.69
2023-05-21T23:54:30.946Z,98308.28
2023-05-21T23:56:57.586Z,98286.88
2023-05-21T23:59:24.239Z,98294.06
